Time;durP1;ratioP1;P1;durP2;ratioP2;P2;SDS_P1;SDS_P2;PMS_P1;PMS_P2;Temp;Humidity;BMP_temperature;BMP_pressure;BME280_temperature;BME280_humidity;BME280_pressure;Samples;Min_cycle;Max_cycle;Signal;HPM_P1;HPM_P2
2022/03/10 00:01:32;;;;;;;34.58;14.77;;;;;;;;;;4967982;28;20483;-80
2022/03/10 00:03:58;;;;;;;29.35;13.68;;;;;;;;;;4986251;28;20453;-80
2022/03/10 00:06:24;;;;;;;25.77;13.10;;;;;;;;;;4967535;28;20034;-80
2022/03/10 00:08:50;;;;;;;25.10;12.40;;;;;;;;;;4978347;28;20386;-80
2022/03/10 00:11:16;;;;;;;25.33;12.88;;;;;;;;;;4969192;28;20033;-80
2022/03/10 00:13:42;;;;;;;28.17;13.45;;;;;;;;;;4965574;28;20686;-80
2022/03/10 00:16:09;;;;;;;29.25;13.38;;;;;;;;;;4969624;28;20022;-80
2022/03/10 00:18:35;;;;;;;30.58;13.80;;;;;;;;;;4964565;28;20054;-80
2022/03/10 00:21:02;;;;;;;32.40;14.10;;;;;;;;;;4980967;28;20489;-80
2022/03/10 00:23:28;;;;;;;33.78;13.27;;;;;;;;;;4962605;28;20130;-80
2022/03/10 00:25:55;;;;;;;36.13;14.52;;;;;;;;;;4964174;28;20129;-80
2022/03/10 00:28:21;;;;;;;29.10;14.38;;;;;;;;;;4982528;28;20069;-80
2022/03/10 00:30:47;;;;;;;32.47;14.15;;;;;;;;;;4979999;28;20045;-80
2022/03/10 00:33:14;;;;;;;29.23;12.68;;;;;;;;;;4968200;28;20499;-80
2022/03/10 00:35:40;;;;;;;27.65;13.45;;;;;;;;;;4958817;28;20057;-80
2022/03/10 00:38:06;;;;;;;32.13;13.25;;;;;;;;;;4969535;28;20462;-82
2022/03/10 00:40:32;;;;;;;27.00;13.25;;;;;;;;;;4977325;28;20768;-81
2022/03/10 00:42:58;;;;;;;26.70;13.18;;;;;;;;;;4966282;28;20058;-81
2022/03/10 00:45:25;;;;;;;30.55;14.32;;;;;;;;;;4983166;28;20034;-81
2022/03/10 00:47:51;;;;;;;32.67;13.32;;;;;;;;;;4985660;28;20053;-81
2022/03/10 00:50:18;;;;;;;35.10;13.95;;;;;;;;;;4966032;28;20031;-81
2022/03/10 00:52:46;;;;;;;38.33;13.38;;;;;;;;;;4985673;28;20069;-81
2022/03/10 00:55:12;;;;;;;31.52;13.65;;;;;;;;;;4964834;28;20713;-81
2022/03/10 00:57:39;;;;;;;33.13;14.05;;;;;;;;;;4967900;28;20109;-81
2022/03/10 01:00:06;;;;;;;25.38;12.57;;;;;;;;;;4983902;28;20408;-80
2022/03/10 01:02:34;;;;;;;30.65;13.65;;;;;;;;;;4982677;28;20068;-80
2022/03/10 01:05:00;;;;;;;35.15;14.27;;;;;;;;;;4969058;28;20081;-81
2022/03/10 01:07:27;;;;;;;28.05;13.52;;;;;;;;;;4965891;28;20082;-80
2022/03/10 01:09:54;;;;;;;31.58;13.65;;;;;;;;;;4970433;28;20023;-80
2022/03/10 01:12:20;;;;;;;31.35;12.23;;;;;;;;;;4965673;28;20397;-81
2022/03/10 01:14:46;;;;;;;35.28;14.43;;;;;;;;;;4968692;28;20133;-81
2022/03/10 01:17:12;;;;;;;31.42;13.50;;;;;;;;;;4979515;28;20042;-81
2022/03/10 01:19:38;;;;;;;31.23;13.95;;;;;;;;;;4983564;28;20038;-81
2022/03/10 01:22:04;;;;;;;31.02;13.27;;;;;;;;;;4965992;28;20266;-80
2022/03/10 01:24:30;;;;;;;29.08;13.93;;;;;;;;;;4977701;28;20501;-80
2022/03/10 01:26:56;;;;;;;29.52;13.85;;;;;;;;;;4983608;28;20034;-81
2022/03/10 01:29:22;;;;;;;33.83;13.93;;;;;;;;;;4966207;28;20062;-80
2022/03/10 01:31:48;;;;;;;33.50;13.80;;;;;;;;;;4981181;28;20066;-80
2022/03/10 01:34:14;;;;;;;27.75;13.18;;;;;;;;;;4968851;28;20042;-81
2022/03/10 01:36:41;;;;;;;32.30;14.55;;;;;;;;;;4982483;28;20034;-80
2022/03/10 01:39:07;;;;;;;28.58;12.93;;;;;;;;;;4980152;28;20034;-81
2022/03/10 01:41:34;;;;;;;33.55;13.80;;;;;;;;;;4967679;28;20054;-80
2022/03/10 01:44:01;;;;;;;34.97;14.85;;;;;;;;;;4965875;28;20041;-80
2022/03/10 01:46:27;;;;;;;25.95;13.45;;;;;;;;;;4976204;28;20042;-80
2022/03/10 01:48:54;;;;;;;29.13;13.65;;;;;;;;;;4965646;28;20050;-81
2022/03/10 01:51:20;;;;;;;31.02;14.23;;;;;;;;;;4979088;28;20030;-80
2022/03/10 01:53:48;;;;;;;32.45;13.60;;;;;;;;;;4963079;28;20496;-81
2022/03/10 01:56:15;;;;;;;32.88;14.05;;;;;;;;;;4979069;28;20046;-80
2022/03/10 01:58:41;;;;;;;31.02;13.43;;;;;;;;;;4965436;28;20454;-80
2022/03/10 02:01:09;;;;;;;29.42;13.15;;;;;;;;;;4966046;28;20039;-81
2022/03/10 02:03:35;;;;;;;28.88;12.55;;;;;;;;;;4972082;28;20490;-81
2022/03/10 02:06:01;;;;;;;32.60;12.88;;;;;;;;;;4975091;28;20025;-81
2022/03/10 02:11:13;;;;;;;30.80;12.65;;;;;;;;;;4983686;28;20097;-81
2022/03/10 02:13:39;;;;;;;29.30;11.65;;;;;;;;;;4977428;28;20054;-80
2022/03/10 02:18:49;;;;;;;29.52;13.20;;;;;;;;;;4998142;28;20139;-81
2022/03/10 02:21:15;;;;;;;28.17;12.43;;;;;;;;;;4994785;28;20481;-81
2022/03/10 02:23:43;;;;;;;32.85;13.40;;;;;;;;;;4982267;28;20116;-81
2022/03/10 02:26:10;;;;;;;28.13;12.60;;;;;;;;;;4983804;28;20034;-81
2022/03/10 02:28:36;;;;;;;30.50;13.20;;;;;;;;;;4998718;28;20040;-81
2022/03/10 02:31:02;;;;;;;32.03;13.32;;;;;;;;;;4983952;28;20036;-81
2022/03/10 02:33:28;;;;;;;31.17;13.43;;;;;;;;;;4983452;28;20489;-80
2022/03/10 02:36:01;;;;;;;32.22;12.20;;;;;;;;;;4998549;28;20792;-80
2022/03/10 02:38:27;;;;;;;29.50;12.35;;;;;;;;;;4995335;28;20034;-81
2022/03/10 02:40:53;;;;;;;28.02;13.52;;;;;;;;;;4985654;28;20124;-81
2022/03/10 02:43:20;;;;;;;32.65;13.75;;;;;;;;;;5005075;28;20371;-80
2022/03/10 02:45:46;;;;;;;29.98;12.85;;;;;;;;;;4985520;28;20477;-80
2022/03/10 02:48:13;;;;;;;28.92;13.40;;;;;;;;;;4984460;28;20057;-80
2022/03/10 02:50:39;;;;;;;25.60;12.15;;;;;;;;;;4987338;28;20030;-81
2022/03/10 02:53:15;;;;;;;37.20;13.25;;;;;;;;;;4982437;28;20037;-81
2022/03/10 02:55:42;;;;;;;;;;;;;;;;;;4990723;28;20116;-80
2022/03/10 02:58:08;;;;;;;33.72;13.77;;;;;;;;;;4983714;28;19914;-81
2022/03/10 03:00:34;;;;;;;43.30;13.13;;;;;;;;;;4988990;28;20125;-81
2022/03/10 03:03:00;;;;;;;31.60;14.40;;;;;;;;;;5002942;28;20146;-81
2022/03/10 03:05:26;;;;;;;33.35;14.73;;;;;;;;;;5006423;28;20034;-81
2022/03/10 03:07:52;;;;;;;26.13;12.65;;;;;;;;;;4986718;28;20030;-81
2022/03/10 03:10:18;;;;;;;34.45;13.68;;;;;;;;;;4998855;28;20024;-81
2022/03/10 03:12:44;;;;;;;35.83;13.50;;;;;;;;;;5006615;28;20042;-81
2022/03/10 03:15:10;;;;;;;29.40;12.15;;;;;;;;;;4984642;28;20029;-80
2022/03/10 03:17:36;;;;;;;25.52;11.38;;;;;;;;;;4985920;28;20036;-81
2022/03/10 03:20:04;;;;;;;23.33;11.23;;;;;;;;;;4988150;28;20018;-81
2022/03/10 03:22:31;;;;;;;28.23;12.55;;;;;;;;;;5003506;28;20036;-81
2022/03/10 03:24:57;;;;;;;23.67;10.90;;;;;;;;;;4983452;28;20460;-81
2022/03/10 03:27:23;;;;;;;29.95;12.68;;;;;;;;;;5003049;28;20026;-81
2022/03/10 03:29:49;;;;;;;28.33;12.60;;;;;;;;;;4987826;28;20030;-80
2022/03/10 03:32:15;;;;;;;26.02;12.35;;;;;;;;;;4986298;28;20072;-81
2022/03/10 03:34:42;;;;;;;24.33;11.43;;;;;;;;;;5000208;28;20570;-80
2022/03/10 03:37:08;;;;;;;36.78;11.27;;;;;;;;;;4997883;28;20042;-80
2022/03/10 03:39:34;;;;;;;36.70;13.15;;;;;;;;;;4987854;28;20037;-80
2022/03/10 03:42:00;;;;;;;32.38;13.18;;;;;;;;;;5003917;28;20202;-80
2022/03/10 03:44:26;;;;;;;31.88;13.57;;;;;;;;;;4987058;28;20034;-80
2022/03/10 03:46:52;;;;;;;29.15;12.25;;;;;;;;;;4983224;28;21273;-80
2022/03/10 03:49:19;;;;;;;25.83;11.18;;;;;;;;;;4988003;28;20032;-81
2022/03/10 03:51:45;;;;;;;33.10;12.70;;;;;;;;;;5000711;28;20783;-80
2022/03/10 03:54:11;;;;;;;21.85;11.05;;;;;;;;;;5003199;28;20181;-81
2022/03/10 03:56:37;;;;;;;24.17;11.55;;;;;;;;;;5001379;28;20091;-81
2022/03/10 03:59:03;;;;;;;26.85;11.77;;;;;;;;;;4984349;28;20069;-80
2022/03/10 04:01:29;;;;;;;28.27;12.77;;;;;;;;;;4999556;28;20495;-81
2022/03/10 04:03:56;;;;;;;27.70;11.95;;;;;;;;;;5000580;28;20041;-81
2022/03/10 04:06:22;;;;;;;29.98;11.70;;;;;;;;;;4986864;28;20037;-81
2022/03/10 04:08:48;;;;;;;25.80;11.93;;;;;;;;;;4986043;28;20029;-80
2022/03/10 04:11:15;;;;;;;27.13;12.15;;;;;;;;;;5005338;28;20397;-81
2022/03/10 04:13:42;;;;;;;27.45;12.40;;;;;;;;;;4986010;28;20044;-81
2022/03/10 04:16:08;;;;;;;33.70;14.30;;;;;;;;;;4982785;28;20117;-81
2022/03/10 04:18:35;;;;;;;26.58;12.40;;;;;;;;;;4966155;28;20034;-80
2022/03/10 04:21:02;;;;;;;25.58;12.35;;;;;;;;;;4968572;28;20394;-80
2022/03/10 04:23:28;;;;;;;27.40;12.18;;;;;;;;;;4984011;28;20397;-80
2022/03/10 04:25:54;;;;;;;25.27;11.40;;;;;;;;;;4964901;28;20028;-80
2022/03/10 04:28:20;;;;;;;26.17;11.85;;;;;;;;;;4967745;28;20121;-80
2022/03/10 04:30:47;;;;;;;28.13;11.73;;;;;;;;;;4961817;28;20035;-80
2022/03/10 04:33:13;;;;;;;30.70;12.25;;;;;;;;;;4980886;28;20046;-80
2022/03/10 04:35:39;;;;;;;35.47;13.48;;;;;;;;;;4967372;28;20044;-80
2022/03/10 04:38:05;;;;;;;27.98;11.98;;;;;;;;;;4962173;28;20536;-81
2022/03/10 04:40:32;;;;;;;24.90;11.10;;;;;;;;;;4978157;28;20031;-79
2022/03/10 04:42:58;;;;;;;26.73;11.32;;;;;;;;;;4969336;28;20030;-81
2022/03/10 04:45:24;;;;;;;27.88;10.77;;;;;;;;;;4979261;28;20037;-81
2022/03/10 04:47:50;;;;;;;28.88;12.18;;;;;;;;;;4965912;28;20030;-81
2022/03/10 04:50:17;;;;;;;34.50;11.95;;;;;;;;;;4964962;28;20069;-80
2022/03/10 04:52:43;;;;;;;27.52;12.32;;;;;;;;;;4981186;28;20191;-81
2022/03/10 04:55:10;;;;;;;34.05;11.55;;;;;;;;;;4979426;28;20034;-80
2022/03/10 04:57:36;;;;;;;23.75;11.70;;;;;;;;;;4979202;28;20469;-80
2022/03/10 05:00:10;;;;;;;37.45;13.00;;;;;;;;;;4968198;28;20026;-80
2022/03/10 05:02:37;;;;;;;27.58;12.93;;;;;;;;;;4962282;28;20042;-81
2022/03/10 05:05:03;;;;;;;28.75;11.63;;;;;;;;;;4968092;28;20541;-81
2022/03/10 05:07:29;;;;;;;28.05;12.82;;;;;;;;;;4964797;28;20516;-81
2022/03/10 05:09:55;;;;;;;36.22;11.80;;;;;;;;;;4968312;28;20042;-80
2022/03/10 05:12:28;;;;;;;27.52;12.32;;;;;;;;;;4969407;28;20046;-79
2022/03/10 05:15:01;;;;;;;25.15;11.23;;;;;;;;;;4980648;28;20045;-81
2022/03/10 05:17:27;;;;;;;27.60;12.10;;;;;;;;;;4980002;28;20516;-80
2022/03/10 05:19:53;;;;;;;31.02;12.45;;;;;;;;;;4964159;28;20085;-80
2022/03/10 05:22:20;;;;;;;23.77;11.68;;;;;;;;;;4974963;28;20113;-81
2022/03/10 05:24:46;;;;;;;31.17;12.57;;;;;;;;;;4960078;28;20081;-80
2022/03/10 05:27:12;;;;;;;27.88;12.98;;;;;;;;;;4957869;28;20058;-80
2022/03/10 05:29:40;;;;;;;35.00;13.48;;;;;;;;;;4974654;28;20030;-79
2022/03/10 05:32:09;;;;;;;26.77;11.43;;;;;;;;;;4970807;28;20076;-79
2022/03/10 05:34:35;;;;;;;30.05;12.23;;;;;;;;;;4982995;28;20050;-79
2022/03/10 05:37:01;;;;;;;32.50;11.90;;;;;;;;;;4979108;28;20070;-79
2022/03/10 05:39:27;;;;;;;27.27;11.93;;;;;;;;;;4960716;28;20027;-79
2022/03/10 05:41:53;;;;;;;26.88;11.77;;;;;;;;;;4978821;28;20537;-79
2022/03/10 05:44:19;;;;;;;30.27;12.40;;;;;;;;;;4959740;28;20065;-79
2022/03/10 05:46:45;;;;;;;26.42;11.63;;;;;;;;;;4964480;28;20086;-79
2022/03/10 05:49:11;;;;;;;23.90;11.18;;;;;;;;;;4967330;28;20034;-80
2022/03/10 05:51:37;;;;;;;25.58;12.10;;;;;;;;;;4981997;28;20069;-80
2022/03/10 05:54:04;;;;;;;26.95;11.90;;;;;;;;;;4965711;28;20073;-80
2022/03/10 05:56:30;;;;;;;31.92;12.57;;;;;;;;;;4978188;28;20521;-79
2022/03/10 05:58:56;;;;;;;28.65;13.20;;;;;;;;;;4979453;28;20533;-80
2022/03/10 06:01:22;;;;;;;26.23;11.45;;;;;;;;;;4981841;28;20117;-80
2022/03/10 06:03:48;;;;;;;31.77;11.55;;;;;;;;;;4962188;28;20065;-80
2022/03/10 06:06:14;;;;;;;24.23;11.88;;;;;;;;;;4984300;28;20081;-80
2022/03/10 06:08:40;;;;;;;28.90;11.38;;;;;;;;;;4976975;28;20481;-80
2022/03/10 06:11:07;;;;;;;27.50;11.07;;;;;;;;;;4980051;28;20081;-79
2022/03/10 06:13:40;;;;;;;27.30;11.43;;;;;;;;;;4977123;28;20167;-81
2022/03/10 06:16:13;;;;;;;27.65;12.43;;;;;;;;;;4987299;28;20042;-79
2022/03/10 06:18:39;;;;;;;24.77;10.75;;;;;;;;;;4968611;28;20034;-80
2022/03/10 06:21:05;;;;;;;25.10;11.77;;;;;;;;;;4965227;28;20545;-82
2022/03/10 06:23:31;;;;;;;23.02;10.77;;;;;;;;;;4985056;28;20014;-82
2022/03/10 06:25:57;;;;;;;31.00;12.07;;;;;;;;;;4981269;28;20513;-82
2022/03/10 06:28:24;;;;;;;30.52;12.15;;;;;;;;;;4970288;28;20037;-82
2022/03/10 06:30:50;;;;;;;25.52;11.90;;;;;;;;;;4983553;28;20045;-81
2022/03/10 06:33:16;;;;;;;32.28;12.18;;;;;;;;;;4966183;28;20045;-81
2022/03/10 06:35:42;;;;;;;26.35;12.05;;;;;;;;;;4983298;28;20100;-82
2022/03/10 06:38:08;;;;;;;31.52;11.13;;;;;;;;;;4967530;28;20599;-78
2022/03/10 06:40:34;;;;;;;36.83;12.30;;;;;;;;;;4982185;28;20038;-81
2022/03/10 06:43:00;;;;;;;22.75;11.10;;;;;;;;;;4967112;28;20481;-82
2022/03/10 06:45:26;;;;;;;31.30;11.90;;;;;;;;;;4972406;28;20030;-81
2022/03/10 06:47:52;;;;;;;22.85;11.70;;;;;;;;;;4983979;28;20038;-82
2022/03/10 06:50:19;;;;;;;25.92;11.20;;;;;;;;;;4972051;28;20394;-80
2022/03/10 06:52:45;;;;;;;26.02;12.00;;;;;;;;;;4966136;28;20035;-81
2022/03/10 06:55:11;;;;;;;26.90;11.38;;;;;;;;;;4970029;28;20056;-81
2022/03/10 06:57:37;;;;;;;27.70;11.80;;;;;;;;;;4964969;28;20513;-82
2022/03/10 07:00:05;;;;;;;35.25;11.75;;;;;;;;;;4966836;28;20034;-82
2022/03/10 07:02:31;;;;;;;24.95;11.68;;;;;;;;;;4967395;28;21112;-82
2022/03/10 07:04:57;;;;;;;26.15;11.57;;;;;;;;;;4984823;28;20057;-82
2022/03/10 07:07:23;;;;;;;28.33;10.68;;;;;;;;;;4979216;28;20033;-82
2022/03/10 07:09:49;;;;;;;22.42;11.13;;;;;;;;;;4963693;28;20038;-82
2022/03/10 07:12:15;;;;;;;28.90;11.73;;;;;;;;;;4970853;28;20033;-82
2022/03/10 07:14:41;;;;;;;23.60;11.10;;;;;;;;;;4986914;28;20041;-82
2022/03/10 07:17:08;;;;;;;22.50;11.13;;;;;;;;;;5005329;28;20096;-82
2022/03/10 07:19:34;;;;;;;23.13;9.57;;;;;;;;;;5001404;28;20030;-82
2022/03/10 07:22:00;;;;;;;23.92;11.13;;;;;;;;;;4984817;28;20045;-82
2022/03/10 07:24:26;;;;;;;22.02;10.38;;;;;;;;;;4999984;28;20030;-82
2022/03/10 07:26:52;;;;;;;27.83;11.02;;;;;;;;;;4989484;28;20103;-82
2022/03/10 07:29:18;;;;;;;31.77;11.02;;;;;;;;;;4986598;28;20125;-81
2022/03/10 07:31:44;;;;;;;35.05;11.27;;;;;;;;;;4997793;28;20546;-82
2022/03/10 07:34:11;;;;;;;21.88;11.75;;;;;;;;;;4987744;28;20133;-82
2022/03/10 07:36:37;;;;;;;21.42;11.48;;;;;;;;;;4985114;28;20037;-82
2022/03/10 07:39:03;;;;;;;26.30;10.93;;;;;;;;;;4985401;28;20092;-81
2022/03/10 07:41:29;;;;;;;23.15;10.98;;;;;;;;;;5003280;28;20322;-82
2022/03/10 07:43:56;;;;;;;26.67;11.68;;;;;;;;;;4983017;28;20033;-81
2022/03/10 07:46:23;;;;;;;25.02;11.60;;;;;;;;;;5001680;28;20041;-80
2022/03/10 07:48:50;;;;;;;21.02;10.93;;;;;;;;;;4982524;28;20565;-81
2022/03/10 07:51:16;;;;;;;26.63;12.18;;;;;;;;;;4978532;28;20085;-81
2022/03/10 07:53:42;;;;;;;22.48;11.77;;;;;;;;;;4999323;28;20136;-81
2022/03/10 07:56:08;;;;;;;28.35;11.57;;;;;;;;;;5001353;28;20477;-81
2022/03/10 07:58:34;;;;;;;23.98;11.73;;;;;;;;;;4984520;28;20104;-81
2022/03/10 08:01:00;;;;;;;21.65;10.48;;;;;;;;;;4989496;28;20038;-82
2022/03/10 08:03:26;;;;;;;19.58;10.73;;;;;;;;;;4999083;28;20029;-81
2022/03/10 08:05:53;;;;;;;24.63;11.35;;;;;;;;;;4998906;28;20030;-82
2022/03/10 08:08:19;;;;;;;24.20;11.20;;;;;;;;;;4983876;28;20065;-82
2022/03/10 08:10:45;;;;;;;23.55;11.77;;;;;;;;;;5001044;28;20038;-81
2022/03/10 08:13:12;;;;;;;22.00;11.25;;;;;;;;;;4983924;28;20030;-81
2022/03/10 08:15:40;;;;;;;25.50;13.77;;;;;;;;;;4982618;28;20037;-82
2022/03/10 08:18:06;;;;;;;21.90;11.38;;;;;;;;;;4982255;28;20041;-81
2022/03/10 08:20:32;;;;;;;22.42;11.77;;;;;;;;;;5004535;28;20545;-81
2022/03/10 08:22:58;;;;;;;21.13;11.60;;;;;;;;;;4985811;28;20031;-82
2022/03/10 08:25:24;;;;;;;25.98;12.25;;;;;;;;;;4985051;28;20133;-81
2022/03/10 08:27:50;;;;;;;23.33;11.15;;;;;;;;;;4998390;28;20100;-81
2022/03/10 08:30:17;;;;;;;22.38;11.70;;;;;;;;;;4985421;28;20038;-81
2022/03/10 08:32:44;;;;;;;24.98;12.13;;;;;;;;;;4998955;28;20050;-81
2022/03/10 08:35:10;;;;;;;22.15;12.05;;;;;;;;;;4987623;28;20531;-82
2022/03/10 08:37:36;;;;;;;24.20;11.00;;;;;;;;;;4979249;28;20983;-82
2022/03/10 08:40:03;;;;;;;23.13;12.75;;;;;;;;;;4983299;28;20552;-82
2022/03/10 08:42:29;;;;;;;25.92;11.18;;;;;;;;;;4999670;28;20038;-80
2022/03/10 08:44:55;;;;;;;21.73;11.80;;;;;;;;;;5000749;28;20037;-80
2022/03/10 08:47:21;;;;;;;20.92;10.98;;;;;;;;;;4995328;28;20057;-80
2022/03/10 08:49:48;;;;;;;21.02;11.38;;;;;;;;;;4980714;28;20465;-79
2022/03/10 08:52:14;;;;;;;26.27;12.80;;;;;;;;;;4981142;28;20035;-80
2022/03/10 08:54:40;;;;;;;20.10;11.45;;;;;;;;;;4997962;28;20145;-79
2022/03/10 08:57:06;;;;;;;21.33;11.80;;;;;;;;;;4985147;28;20117;-80
2022/03/10 08:59:32;;;;;;;23.30;11.45;;;;;;;;;;4995919;28;20101;-80
2022/03/10 09:01:58;;;;;;;20.88;11.57;;;;;;;;;;4977529;28;20767;-80
2022/03/10 09:04:24;;;;;;;24.60;12.23;;;;;;;;;;5001408;28;20034;-80
2022/03/10 09:06:50;;;;;;;20.67;12.25;;;;;;;;;;5001255;28;20495;-79
2022/03/10 09:09:16;;;;;;;21.17;11.60;;;;;;;;;;4985352;28;20351;-80
2022/03/10 09:11:42;;;;;;;23.63;11.82;;;;;;;;;;5003826;28;20048;-79
2022/03/10 09:14:08;;;;;;;20.60;11.90;;;;;;;;;;4988331;28;20071;-79
2022/03/10 09:16:34;;;;;;;19.33;11.45;;;;;;;;;;4984988;28;20037;-79
2022/03/10 09:19:00;;;;;;;26.73;11.95;;;;;;;;;;5002497;28;20030;-80
2022/03/10 09:21:35;;;;;;;23.10;13.75;;;;;;;;;;4982442;28;20806;-79
2022/03/10 09:24:01;;;;;;;23.58;12.43;;;;;;;;;;4986068;28;20030;-79
2022/03/10 09:26:27;;;;;;;22.15;12.63;;;;;;;;;;4981909;28;20362;-80
2022/03/10 09:28:53;;;;;;;22.92;12.30;;;;;;;;;;5000416;28;20037;-80
2022/03/10 09:31:19;;;;;;;21.35;12.18;;;;;;;;;;5004583;28;20239;-79
2022/03/10 09:33:46;;;;;;;20.58;11.32;;;;;;;;;;4987703;28;20038;-80
2022/03/10 09:36:13;;;;;;;23.63;12.27;;;;;;;;;;4996825;28;20034;-80
2022/03/10 09:38:40;;;;;;;21.58;11.88;;;;;;;;;;4983604;28;20402;-80
2022/03/10 09:41:06;;;;;;;21.55;9.90;;;;;;;;;;4984189;28;20084;-80
2022/03/10 09:43:33;;;;;;;19.70;10.98;;;;;;;;;;4986226;28;20394;-80
2022/03/10 09:46:00;;;;;;;19.65;12.25;;;;;;;;;;4999165;28;20022;-80
2022/03/10 09:48:26;;;;;;;27.60;13.13;;;;;;;;;;4982869;28;20552;-80
2022/03/10 09:50:52;;;;;;;20.63;11.27;;;;;;;;;;5000956;28;20061;-80
2022/03/10 09:53:19;;;;;;;21.02;11.82;;;;;;;;;;4999694;28;20037;-80
2022/03/10 09:55:45;;;;;;;22.73;12.38;;;;;;;;;;4987413;28;20567;-80
2022/03/10 09:58:11;;;;;;;21.52;12.18;;;;;;;;;;4984707;28;20089;-80
2022/03/10 10:00:37;;;;;;;21.25;12.20;;;;;;;;;;5000867;28;20549;-80
2022/03/10 10:03:04;;;;;;;22.95;12.63;;;;;;;;;;4985223;28;20172;-80
2022/03/10 10:05:38;;;;;;;23.27;11.95;;;;;;;;;;4998249;28;20029;-80
2022/03/10 10:08:09;;;;;;;30.98;13.85;;;;;;;;;;4986231;28;20033;-80
2022/03/10 10:10:36;;;;;;;21.75;11.98;;;;;;;;;;4978945;28;20206;-82
2022/03/10 10:13:06;;;;;;;25.88;13.68;;;;;;;;;;4999043;28;20502;-82
2022/03/10 10:15:46;;;;;;;25.40;12.30;;;;;;;;;;4983371;28;20137;-82
2022/03/10 10:18:20;;;;;;;20.85;12.88;;;;;;;;;;4982139;28;20030;-82
2022/03/10 10:20:50;;;;;;;20.52;12.32;;;;;;;;;;4997854;28;20047;-79
2022/03/10 10:23:27;;;;;;;20.80;12.43;;;;;;;;;;5002434;28;20033;-79
2022/03/10 10:25:57;;;;;;;19.80;12.98;;;;;;;;;;5000575;28;20708;-79
2022/03/10 10:28:28;;;;;;;24.02;12.23;;;;;;;;;;4988267;28;20026;-79
2022/03/10 10:30:59;;;;;;;17.55;11.55;;;;;;;;;;4983559;28;20508;-79
2022/03/10 10:33:25;;;;;;;21.48;13.23;;;;;;;;;;4984702;28;20045;-80
2022/03/10 10:35:52;;;;;;;20.20;12.75;;;;;;;;;;4993086;28;20037;-79
2022/03/10 10:38:29;;;;;;;21.40;13.98;;;;;;;;;;4997431;28;20052;-79
2022/03/10 10:41:13;;;;;;;21.40;12.57;;;;;;;;;;5000600;28;20497;-79
2022/03/10 10:43:40;;;;;;;21.17;13.10;;;;;;;;;;4988936;28;20547;-79
2022/03/10 10:46:07;;;;;;;24.02;12.85;;;;;;;;;;4995867;28;20404;-80
2022/03/10 10:48:45;;;;;;;20.48;12.38;;;;;;;;;;5000341;28;20033;-79
2022/03/10 10:51:12;;;;;;;19.83;11.40;;;;;;;;;;5002766;28;20598;-79
2022/03/10 10:53:39;;;;;;;23.52;12.50;;;;;;;;;;4982147;28;20433;-79
2022/03/10 10:56:06;;;;;;;21.50;12.98;;;;;;;;;;4983281;28;20038;-79
2022/03/10 10:58:32;;;;;;;22.02;13.05;;;;;;;;;;4989871;28;20030;-79
2022/03/10 11:00:58;;;;;;;22.63;13.32;;;;;;;;;;5003391;28;20037;-79
2022/03/10 11:03:25;;;;;;;18.98;12.88;;;;;;;;;;5002541;28;20030;-79
2022/03/10 11:05:51;;;;;;;22.83;12.25;;;;;;;;;;4990587;28;20022;-80
2022/03/10 11:08:20;;;;;;;22.17;13.18;;;;;;;;;;4999059;28;20032;-79
2022/03/10 11:10:46;;;;;;;23.90;14.05;;;;;;;;;;4979669;28;20042;-80
2022/03/10 11:13:12;;;;;;;17.45;11.32;;;;;;;;;;4999052;28;20736;-80
2022/03/10 11:15:39;;;;;;;25.70;15.00;;;;;;;;;;4990652;28;20066;-80
2022/03/10 11:18:05;;;;;;;23.15;13.52;;;;;;;;;;4990491;28;20026;-80
2022/03/10 11:20:34;;;;;;;21.85;12.68;;;;;;;;;;4990161;28;20087;-79
2022/03/10 11:23:19;;;;;;;20.55;13.25;;;;;;;;;;4990877;28;20022;-79
2022/03/10 11:26:06;;;;;;;27.27;14.20;;;;;;;;;;4988956;28;20363;-79
2022/03/10 11:28:32;;;;;;;21.70;13.82;;;;;;;;;;5003719;28;20018;-80
2022/03/10 11:31:00;;;;;;;23.83;12.68;;;;;;;;;;4987123;28;20085;-80
2022/03/10 11:33:36;;;;;;;17.63;11.18;;;;;;;;;;4987516;28;20129;-79
2022/03/10 11:36:21;;;;;;;23.38;12.43;;;;;;;;;;4986849;28;20152;-79
2022/03/10 11:38:50;;;;;;;22.42;13.77;;;;;;;;;;4986695;28;20065;-80
2022/03/10 11:41:20;;;;;;;21.40;13.10;;;;;;;;;;5000622;28;20133;-79
2022/03/10 11:43:58;;;;;;;23.92;14.30;;;;;;;;;;5005802;28;20508;-79
2022/03/10 11:46:24;;;;;;;21.17;12.82;;;;;;;;;;5002499;28;20049;-79
2022/03/10 11:49:02;;;;;;;27.88;14.65;;;;;;;;;;5003036;28;20124;-79
2022/03/10 11:51:41;;;;;;;25.95;13.85;;;;;;;;;;4985395;28;20034;-79
2022/03/10 11:54:08;;;;;;;24.08;15.25;;;;;;;;;;5001371;28;20485;-79
2022/03/10 11:56:35;;;;;;;29.15;17.60;;;;;;;;;;5001571;28;20078;-79
2022/03/10 11:59:18;;;;;;;24.70;14.52;;;;;;;;;;5001195;28;20109;-79
2022/03/10 12:01:44;;;;;;;22.02;13.77;;;;;;;;;;4986423;28;20533;-79
2022/03/10 12:04:17;;;;;;;21.60;14.07;;;;;;;;;;4982569;28;20030;-80
2022/03/10 12:06:57;;;;;;;23.90;14.65;;;;;;;;;;4986310;28;20037;-80
2022/03/10 12:09:27;;;;;;;25.67;14.18;;;;;;;;;;5001785;28;20025;-80
2022/03/10 12:11:54;;;;;;;23.00;14.13;;;;;;;;;;5000163;28;20416;-79
2022/03/10 12:14:34;;;;;;;19.98;13.55;;;;;;;;;;4980246;28;20129;-79
2022/03/10 12:17:26;;;;;;;24.08;13.52;;;;;;;;;;4973156;28;20045;-80
2022/03/10 12:20:11;;;;;;;25.27;15.75;;;;;;;;;;4987078;28;20540;-80
2022/03/10 12:22:37;;;;;;;23.85;14.50;;;;;;;;;;4965606;28;20050;-80
2022/03/10 12:25:18;;;;;;;24.98;14.32;;;;;;;;;;4966377;28;20080;-80
2022/03/10 12:27:54;;;;;;;23.38;14.05;;;;;;;;;;4966964;28;20045;-80
2022/03/10 12:30:28;;;;;;;21.15;14.48;;;;;;;;;;4969248;28;20078;-80
2022/03/10 12:32:55;;;;;;;24.02;15.00;;;;;;;;;;4983161;28;20045;-80
2022/03/10 12:35:26;;;;;;;22.67;14.45;;;;;;;;;;4967421;28;20037;-80
2022/03/10 12:37:53;;;;;;;22.85;14.50;;;;;;;;;;4982257;28;20034;-79
2022/03/10 12:40:20;;;;;;;22.67;14.38;;;;;;;;;;4968141;28;20050;-80
2022/03/10 12:42:47;;;;;;;22.25;13.38;;;;;;;;;;4983928;28;20057;-80
2022/03/10 12:45:20;;;;;;;22.27;14.13;;;;;;;;;;4986752;28;20041;-80
2022/03/10 12:47:50;;;;;;;26.05;13.75;;;;;;;;;;4982968;28;20034;-79
2022/03/10 12:50:16;;;;;;;24.55;14.43;;;;;;;;;;4983799;28;20073;-80
2022/03/10 12:52:43;;;;;;;23.33;13.55;;;;;;;;;;4983014;28;20066;-80
2022/03/10 12:55:11;;;;;;;20.33;14.27;;;;;;;;;;4965330;28;20046;-80
2022/03/10 12:57:38;;;;;;;22.70;13.63;;;;;;;;;;4982886;28;20053;-80
2022/03/10 13:00:21;;;;;;;25.67;14.55;;;;;;;;;;4984877;28;20341;-80
2022/03/10 13:02:48;;;;;;;26.73;15.60;;;;;;;;;;4979035;28;20062;-79
2022/03/10 13:05:20;;;;;;;24.27;14.70;;;;;;;;;;4968254;28;20077;-80
2022/03/10 13:07:46;;;;;;;25.67;14.20;;;;;;;;;;4969306;28;20030;-80
2022/03/10 13:10:14;;;;;;;21.90;14.57;;;;;;;;;;4965534;28;20102;-80
2022/03/10 13:12:41;;;;;;;23.00;14.63;;;;;;;;;;4978419;28;20486;-80
2022/03/10 13:15:09;;;;;;;26.27;13.93;;;;;;;;;;4980364;28;20641;-80
2022/03/10 13:17:36;;;;;;;26.15;13.95;;;;;;;;;;4998799;28;20066;-80
2022/03/10 13:20:08;;;;;;;28.23;14.90;;;;;;;;;;4986984;28;20045;-79
2022/03/10 13:22:34;;;;;;;24.58;13.52;;;;;;;;;;4998825;28;20144;-80
2022/03/10 13:25:01;;;;;;;25.20;14.45;;;;;;;;;;5002945;28;20109;-80
2022/03/10 13:27:29;;;;;;;31.40;14.75;;;;;;;;;;5001847;28;20029;-79
2022/03/10 13:29:55;;;;;;;24.08;14.60;;;;;;;;;;4981156;28;20068;-80
2022/03/10 13:32:22;;;;;;;24.55;14.85;;;;;;;;;;4985147;28;20053;-80
2022/03/10 13:34:49;;;;;;;24.50;14.63;;;;;;;;;;4998656;28;20065;-79
2022/03/10 13:37:15;;;;;;;25.92;13.50;;;;;;;;;;5001426;28;20033;-80
2022/03/10 13:39:42;;;;;;;25.63;14.65;;;;;;;;;;4996480;28;20100;-80
2022/03/10 13:42:11;;;;;;;26.48;15.07;;;;;;;;;;4979964;28;20512;-80
2022/03/10 13:44:37;;;;;;;28.40;14.52;;;;;;;;;;4986167;28;20492;-80
2022/03/10 13:47:07;;;;;;;26.30;13.88;;;;;;;;;;5000492;28;20026;-80
2022/03/10 13:49:44;;;;;;;24.13;14.85;;;;;;;;;;5003383;28;20037;-80
2022/03/10 13:52:14;;;;;;;25.77;14.75;;;;;;;;;;4983570;28;20034;-79
2022/03/10 13:54:40;;;;;;;19.13;13.00;;;;;;;;;;4983944;28;20049;-80
2022/03/10 13:57:06;;;;;;;28.25;14.43;;;;;;;;;;5002688;28;20382;-80
2022/03/10 13:59:32;;;;;;;28.20;14.90;;;;;;;;;;4986129;28;20482;-79
2022/03/10 14:01:58;;;;;;;24.50;14.85;;;;;;;;;;4990002;28;20076;-80
2022/03/10 14:04:24;;;;;;;27.85;15.50;;;;;;;;;;5001093;28;20735;-80
2022/03/10 14:06:51;;;;;;;24.33;14.50;;;;;;;;;;4982374;28;20207;-79
2022/03/10 14:09:24;;;;;;;31.40;14.95;;;;;;;;;;4985611;28;20392;-80
2022/03/10 14:11:51;;;;;;;25.30;14.70;;;;;;;;;;4985633;28;20493;-80
2022/03/10 14:14:29;;;;;;;30.90;14.73;;;;;;;;;;5001962;28;20085;-80
2022/03/10 14:16:55;;;;;;;25.35;14.43;;;;;;;;;;4982878;28;20053;-80
2022/03/10 14:19:23;;;;;;;26.27;15.13;;;;;;;;;;5000440;28;20030;-80
2022/03/10 14:21:49;;;;;;;26.63;14.90;;;;;;;;;;5003596;28;20045;-80
2022/03/10 14:24:24;;;;;;;26.67;14.73;;;;;;;;;;4980370;28;20044;-80
2022/03/10 14:26:50;;;;;;;26.48;14.43;;;;;;;;;;5001531;28;20034;-80